Time;durP1;ratioP1;P1;durP2;ratioP2;P2;SDS_P1;SDS_P2;PMS_P1;PMS_P2;Temp;Humidity;BMP_temperature;BMP_pressure;BME280_temperature;BME280_humidity;BME280_pressure;Samples;Min_cycle;Max_cycle;Signal;HPM_P1;HPM_P2
2021/07/13 00:00:33;;;;;;;;;;;;;;;;;;5012449;28;1496;-88
2021/07/13 00:02:59;;;;;;;;;;;;;;;;;;5029673;28;1441;-88
2021/07/13 00:05:24;;;;;;;;;;;;;;;;;;5033809;28;1902;-88
2021/07/13 00:07:49;;;;;;;;;;;;;;;;;;5032713;28;1271;-88
2021/07/13 00:10:15;;;;;;;;;;;;;;;;;;5028309;28;1637;-87
2021/07/13 00:12:40;;;;;;;;;;;;;;;;;;5014242;28;1312;-88
2021/07/13 00:15:07;;;;;;;;;;;;;;;;;;5034160;28;1237;-87
2021/07/13 00:17:32;;;;;;;;;;;;;;;;;;5031637;28;1299;-87
2021/07/13 00:19:57;;;;;;;;;;;;;;;;;;5026785;28;1622;-87
2021/07/13 00:22:23;;;;;;;;;;;;;;;;;;5028759;28;1577;-87
2021/07/13 00:24:48;;;;;;;;;;;;;;;;;;5028230;28;1898;-87
2021/07/13 00:27:13;;;;;;;;;;;;;;;;;;5032794;28;1289;-87
2021/07/13 00:29:38;;;;;;;;;;;;;;;;;;5032335;28;1189;-87
2021/07/13 00:32:03;;;;;;;;;;;;;;;;;;5033027;28;1192;-87
2021/07/13 00:34:28;;;;;;;;;;;;;;;;;;5028800;28;1527;-86
2021/07/13 00:36:54;;;;;;;;;;;;;;;;;;5032792;28;1262;-86
2021/07/13 00:39:19;;;;;;;;;;;;;;;;;;5029049;28;1593;-86
2021/07/13 00:41:44;;;;;;;;;;;;;;;;;;5033204;28;1177;-86
2021/07/13 00:44:09;;;;;;;;;;;;;;;;;;5032903;28;1902;-86
2021/07/13 00:46:38;;;;;;;;;;;;;;;;;;5030943;28;1267;-86
2021/07/13 00:49:04;;;;;;;;;;;;;;;;;;5027373;28;1513;-86
2021/07/13 00:51:29;;;;;;;;;;;;;;;;;;5032492;28;1094;-87
2021/07/13 00:53:55;;;;;;;;;;;;;;;;;;5028472;28;1611;-87
2021/07/13 00:56:20;;;;;;;;;;;;;;;;;;5015492;28;1391;-87
2021/07/13 00:58:45;;;;;;;;;;;;;;;;;;5009389;28;1608;-87
2021/07/13 01:01:10;;;;;;;;;;;;;;;;;;5024650;28;1685;-87
2021/07/13 01:03:35;;;;;;;;;;;;;;;;;;5007099;28;1976;-87
2021/07/13 01:06:01;;;;;;;;;;;;;;;;;;5013832;28;1129;-87
2021/07/13 01:08:35;;;;;;;;;;;;;;;;;;5012035;28;1532;-87
2021/07/13 01:11:03;;;;;;;;;;;;;;;;;;5027994;28;1631;-87
2021/07/13 01:13:28;;;;;;;;;;;;;;;;;;5029869;28;1610;-87
2021/07/13 01:16:08;;;;;;;;;;;;;;;;;;5030880;28;1014;-87
2021/07/13 01:18:36;;;;;;;;;;;;;;;;;;5027424;28;1549;-87
2021/07/13 01:21:02;;;;;;;;;;;;;;;;;;5032875;28;1162;-87
2021/07/13 01:23:28;;;;;;;;;;;;;;;;;;5031888;28;1894;-87
2021/07/13 01:26:11;;;;;;;;;;;;;;;;;;5028798;28;1601;-87
2021/07/13 01:28:39;;;;;;;;;;;;;;;;;;5031736;28;1219;-87
2021/07/13 01:31:04;;;;;;;;;;;;;;;;;;5012907;28;1548;-87
2021/07/13 01:33:30;;;;;;;;;;;;;;;;;;5012182;28;1735;-87
2021/07/13 01:36:05;;;;;;;;;;;;;;;;;;5014012;28;1016;-87
2021/07/13 01:38:32;;;;;;;;;;;;;;;;;;4995738;28;1495;-87
2021/07/13 01:41:18;;;;;;;;;;;;;;;;;;5012238;28;1575;-87
2021/07/13 01:43:43;;;;;;;;;;;;;;;;;;5031005;28;1961;-87
2021/07/13 01:46:08;;;;;;;;;;;;;;;;;;5011919;28;1335;-87
2021/07/13 01:48:33;;;;;;;;;;;;;;;;;;5012188;28;1555;-87
2021/07/13 01:50:59;;;;;;;;;;;;;;;;;;5013619;28;1208;-87
2021/07/13 01:53:24;;;;;;;;;;;;;;;;;;5007244;28;1547;-87
2021/07/13 01:55:49;;;;;;;;;;;;;;;;;;5012155;28;1583;-87
2021/07/13 01:58:15;;;;;;;;;;;;;;;;;;5012506;28;1352;-87
2021/07/13 02:00:40;;;;;;;;;;;;;;;;;;5031462;28;1165;-87
2021/07/13 02:03:06;;;;;;;;;;;;;;;;;;5012670;28;1296;-87
2021/07/13 02:05:31;;;;;;;;;;;;;;;;;;5007470;28;1976;-87
2021/07/13 02:07:58;;;;;;;;;;;;;;;;;;5012918;28;1302;-87
2021/07/13 02:10:24;;;;;;;;;;;;;;;;;;5012045;28;1530;-86
2021/07/13 02:12:49;;;;;;;;;;;;;;;;;;5031765;28;1105;-87
2021/07/13 02:15:14;;;;;;;;;;;;;;;;;;5029563;28;1318;-87
2021/07/13 02:17:39;;;;;;;;;;;;;;;;;;5029450;28;1585;-87
2021/07/13 02:20:05;;;;;;;;;;;;;;;;;;5013212;28;1292;-87
2021/07/13 02:22:31;;;;;;;;;;;;;;;;;;5030953;28;1110;-87
2021/07/13 02:24:56;;;;;;;;;;;;;;;;;;5027713;28;1910;-87
2021/07/13 02:27:21;;;;;;;;;;;;;;;;;;5031660;28;1225;-87
2021/07/13 02:29:49;;;;;;;;;;;;;;;;;;4996347;28;1158;-87
2021/07/13 02:32:34;;;;;;;;;;;;;;;;;;5011235;28;1506;-86
2021/07/13 02:35:00;;;;;;;;;;;;;;;;;;5026090;28;1465;-86
2021/07/13 02:37:26;;;;;;;;;;;;;;;;;;5012627;28;1359;-86
2021/07/13 02:39:51;;;;;;;;;;;;;;;;;;5009074;28;1588;-87
2021/07/13 02:42:16;;;;;;;;;;;;;;;;;;5011872;28;1133;-87
2021/07/13 02:44:41;;;;;;;;;;;;;;;;;;5030167;28;1918;-86
2021/07/13 02:47:07;;;;;;;;;;;;;;;;;;5026409;28;1619;-87
2021/07/13 02:49:33;;;;;;;;;;;;;;;;;;5030517;28;1229;-87
2021/07/13 02:51:58;;;;;;;;;;;;;;;;;;5012211;28;1237;-86
2021/07/13 02:54:24;;;;;;;;;;;;;;;;;;5011133;28;1569;-87
2021/07/13 02:56:49;;;;;;;;;;;;;;;;;;5025919;28;1499;-87
2021/07/13 02:59:16;;;;;;;;;;;;;;;;;;5029222;28;1165;-86
2021/07/13 03:01:41;;;;;;;;;;;;;;;;;;5025972;28;1608;-87
2021/07/13 03:04:06;;;;;;;;;;;;;;;;;;5010834;28;1952;-86
2021/07/13 03:06:31;;;;;;;;;;;;;;;;;;5027481;28;1290;-86
2021/07/13 03:08:56;;;;;;;;;;;;;;;;;;5009970;28;1558;-86
2021/07/13 03:11:21;;;;;;;;;;;;;;;;;;5029440;28;1161;-87
2021/07/13 03:13:47;;;;;;;;;;;;;;;;;;5027982;28;1450;-87
2021/07/13 03:16:12;;;;;;;;;;;;;;;;;;5031290;28;1165;-87
2021/07/13 03:18:37;;;;;;;;;;;;;;;;;;5028823;28;1350;-87
2021/07/13 03:21:02;;;;;;;;;;;;;;;;;;5024026;28;1784;-87
2021/07/13 03:23:28;;;;;;;;;;;;;;;;;;5024273;28;1445;-87
2021/07/13 03:25:53;;;;;;;;;;;;;;;;;;5010864;28;1965;-87
2021/07/13 03:28:18;;;;;;;;;;;;;;;;;;5012058;28;1468;-88
2021/07/13 03:30:44;;;;;;;;;;;;;;;;;;5011374;28;1165;-87
2021/07/13 03:33:09;;;;;;;;;;;;;;;;;;5010691;28;1523;-87
2021/07/13 03:35:34;;;;;;;;;;;;;;;;;;5011773;28;1603;-87
2021/07/13 03:38:00;;;;;;;;;;;;;;;;;;5028902;28;1353;-87
2021/07/13 03:40:25;;;;;;;;;;;;;;;;;;5012420;28;1508;-87
2021/07/13 03:42:51;;;;;;;;;;;;;;;;;;5010056;28;1345;-87
2021/07/13 03:45:17;;;;;;;;;;;;;;;;;;5030317;28;1906;-87
2021/07/13 03:47:44;;;;;;;;;;;;;;;;;;5009748;28;1668;-87
2021/07/13 03:50:09;;;;;;;;;;;;;;;;;;5010967;28;1354;-87
2021/07/13 03:52:34;;;;;;;;;;;;;;;;;;5010874;28;1300;-87
2021/07/13 03:54:59;;;;;;;;;;;;;;;;;;5023289;28;1502;-87
2021/07/13 03:57:25;;;;;;;;;;;;;;;;;;5030346;28;1345;-87
2021/07/13 03:59:50;;;;;;;;;;;;;;;;;;5029869;28;1347;-87
2021/07/13 04:02:15;;;;;;;;;;;;;;;;;;5028692;28;1653;-87
2021/07/13 04:04:40;;;;;;;;;;;;;;;;;;5018452;28;1989;-87
2021/07/13 04:07:05;;;;;;;;;;;;;;;;;;5026627;28;1244;-87
2021/07/13 04:09:31;;;;;;;;;;;;;;;;;;5023612;28;1727;-87
2021/07/13 04:11:56;;;;;;;;;;;;;;;;;;5032715;28;1322;-87
2021/07/13 04:14:21;;;;;;;;;;;;;;;;;;5027782;28;1339;-87
2021/07/13 04:16:46;;;;;;;;;;;;;;;;;;5032761;28;1304;-87
2021/07/13 04:19:11;;;;;;;;;;;;;;;;;;5028297;28;1506;-87
2021/07/13 04:21:36;;;;;;;;;;;;;;;;;;5033256;28;1177;-87
2021/07/13 04:24:02;;;;;;;;;;;;;;;;;;5028009;28;1906;-87
2021/07/13 04:26:27;;;;;;;;;;;;;;;;;;5033376;28;1377;-87
2021/07/13 04:28:52;;;;;;;;;;;;;;;;;;5030770;28;1386;-88
2021/07/13 04:31:17;;;;;;;;;;;;;;;;;;5026676;28;1539;-86
2021/07/13 04:33:42;;;;;;;;;;;;;;;;;;5030484;28;1362;-86
2021/07/13 04:36:08;;;;;;;;;;;;;;;;;;5013244;28;1170;-86
2021/07/13 04:38:33;;;;;;;;;;;;;;;;;;5028684;28;1530;-86
2021/07/13 04:40:58;;;;;;;;;;;;;;;;;;5029732;28;1633;-86
2021/07/13 04:43:23;;;;;;;;;;;;;;;;;;5030506;28;1350;-86
2021/07/13 04:45:48;;;;;;;;;;;;;;;;;;5033019;28;1958;-86
2021/07/13 04:48:14;;;;;;;;;;;;;;;;;;5028160;28;1684;-86
2021/07/13 04:50:39;;;;;;;;;;;;;;;;;;5033411;28;1133;-86
2021/07/13 04:53:04;;;;;;;;;;;;;;;;;;5033629;28;1176;-86
2021/07/13 04:55:29;;;;;;;;;;;;;;;;;;5024966;28;2073;-87
2021/07/13 04:57:54;;;;;;;;;;;;;;;;;;5033259;28;1272;-86
2021/07/13 05:00:20;;;;;;;;;;;;;;;;;;5029739;28;1426;-86
2021/07/13 05:02:45;;;;;;;;;;;;;;;;;;5029480;28;1570;-86
2021/07/13 05:05:10;;;;;;;;;;;;;;;;;;5032037;28;1977;-86
2021/07/13 05:07:39;;;;;;;;;;;;;;;;;;5030961;28;1314;-87
2021/07/13 05:10:04;;;;;;;;;;;;;;;;;;5027072;28;1664;-86
2021/07/13 05:12:30;;;;;;;;;;;;;;;;;;5031571;28;1129;-87
2021/07/13 05:14:55;;;;;;;;;;;;;;;;;;5032254;28;1381;-86
2021/07/13 05:17:20;;;;;;;;;;;;;;;;;;5027356;28;1499;-86
2021/07/13 05:19:48;;;;;;;;;;;;;;;;;;5029736;28;1338;-86
2021/07/13 05:22:16;;;;;;;;;;;;;;;;;;5031056;28;1404;-86
2021/07/13 05:24:41;;;;;;;;;;;;;;;;;;5028094;28;1940;-86
2021/07/13 05:27:09;;;;;;;;;;;;;;;;;;5032239;28;1282;-86
2021/07/13 05:29:34;;;;;;;;;;;;;;;;;;5029648;28;1291;-86
2021/07/13 05:31:59;;;;;;;;;;;;;;;;;;5011842;28;1615;-86
2021/07/13 05:34:24;;;;;;;;;;;;;;;;;;5028304;28;1493;-86
2021/07/13 05:36:49;;;;;;;;;;;;;;;;;;5014095;28;1397;-86
2021/07/13 05:39:15;;;;;;;;;;;;;;;;;;5025143;28;1549;-86
2021/07/13 05:41:40;;;;;;;;;;;;;;;;;;5032352;28;1161;-86
2021/07/13 05:44:06;;;;;;;;;;;;;;;;;;5030322;28;1887;-86
2021/07/13 05:46:31;;;;;;;;;;;;;;;;;;5029285;28;1573;-86
2021/07/13 05:48:56;;;;;;;;;;;;;;;;;;5022031;28;1618;-86
2021/07/13 05:51:22;;;;;;;;;;;;;;;;;;5028770;28;1156;-86
2021/07/13 05:53:47;;;;;;;;;;;;;;;;;;5029467;28;1530;-87
2021/07/13 05:56:12;;;;;;;;;;;;;;;;;;5029415;28;929;-87
2021/07/13 05:58:37;;;;;;;;;;;;;;;;;;5031142;28;1275;-87
2021/07/13 06:01:03;;;;;;;;;;;;;;;;;;4996535;28;1503;-87
2021/07/13 06:03:28;;;;;;;;;;;;;;;;;;5030189;28;1378;-88
2021/07/13 06:05:53;;;;;;;;;;;;;;;;;;5027697;28;1934;-87
2021/07/13 06:08:18;;;;;;;;;;;;;;;;;;5028554;28;1640;-87
2021/07/13 06:10:43;;;;;;;;;;;;;;;;;;5027527;28;1610;-87
2021/07/13 06:13:09;;;;;;;;;;;;;;;;;;5031563;28;1260;-86
2021/07/13 06:15:34;;;;;;;;;;;;;;;;;;5031101;28;1168;-86
2021/07/13 06:17:59;;;;;;;;;;;;;;;;;;5028962;28;1590;-87
2021/07/13 06:20:24;;;;;;;;;;;;;;;;;;5026284;28;1561;-88
2021/07/13 06:22:49;;;;;;;;;;;;;;;;;;5013290;28;1169;-88
2021/07/13 06:25:15;;;;;;;;;;;;;;;;;;5028484;28;2025;-87
2021/07/13 06:27:40;;;;;;;;;;;;;;;;;;5012556;28;1282;-87
2021/07/13 06:30:07;;;;;;;;;;;;;;;;;;5011321;28;1522;-88
2021/07/13 06:32:33;;;;;;;;;;;;;;;;;;5029491;28;1125;-88
2021/07/13 06:34:59;;;;;;;;;;;;;;;;;;5030336;28;1331;-87
2021/07/13 06:37:24;;;;;;;;;;;;;;;;;;5025923;28;1672;-87
2021/07/13 06:39:49;;;;;;;;;;;;;;;;;;5023971;28;1539;-88
2021/07/13 06:42:14;;;;;;;;;;;;;;;;;;4994390;28;1451;-90
2021/07/13 06:44:39;;;;;;;;;;;;;;;;;;5028785;28;1952;-90
2021/07/13 06:47:05;;;;;;;;;;;;;;;;;;5023884;28;1458;-90
2021/07/13 06:49:30;;;;;;;;;;;;;;;;;;5026508;28;1510;-90
2021/07/13 06:51:55;;;;;;;;;;;;;;;;;;5028282;28;1085;-89
2021/07/13 06:54:20;;;;;;;;;;;;;;;;;;5023990;28;1586;-89
2021/07/13 06:56:45;;;;;;;;;;;;;;;;;;5028655;28;1382;-89
2021/07/13 06:59:10;;;;;;;;;;;;;;;;;;5028605;28;1314;-89
2021/07/13 07:01:36;;;;;;;;;;;;;;;;;;5029820;28;1117;-90
2021/07/13 07:04:01;;;;;;;;;;;;;;;;;;5025076;28;1967;-89
2021/07/13 07:06:27;;;;;;;;;;;;;;;;;;5030787;28;1267;-87
2021/07/13 07:08:52;;;;;;;;;;;;;;;;;;5026054;28;1526;-87
2021/07/13 07:11:17;;;;;;;;;;;;;;;;;;5028070;28;1185;-88
2021/07/13 07:13:43;;;;;;;;;;;;;;;;;;5030043;28;1509;-89
2021/07/13 07:16:08;;;;;;;;;;;;;;;;;;5032076;28;1240;-89
2021/07/13 07:18:33;;;;;;;;;;;;;;;;;;5029102;28;1586;-89
2021/07/13 07:20:58;;;;;;;;;;;;;;;;;;5032509;28;1094;-89
2021/07/13 07:23:23;;;;;;;;;;;;;;;;;;5025427;28;1554;-89
2021/07/13 07:25:48;;;;;;;;;;;;;;;;;;5014538;28;1898;-89
2021/07/13 07:28:14;;;;;;;;;;;;;;;;;;5028818;28;1366;-89
2021/07/13 07:30:39;;;;;;;;;;;;;;;;;;5031086;28;1252;-88
2021/07/13 07:33:04;;;;;;;;;;;;;;;;;;5019798;28;1628;-88
2021/07/13 07:35:29;;;;;;;;;;;;;;;;;;5029055;28;1217;-89
2021/07/13 07:37:55;;;;;;;;;;;;;;;;;;5029243;28;1272;-90
2021/07/13 07:40:20;;;;;;;;;;;;;;;;;;5023566;28;1589;-90
2021/07/13 07:42:52;;;;;;;;;;;;;;;;;;5030230;28;1497;-90
2021/07/13 07:45:17;;;;;;;;;;;;;;;;;;5013801;28;1899;-90
2021/07/13 07:47:42;;;;;;;;;;;;;;;;;;5015758;28;1677;-90
2021/07/13 07:50:08;;;;;;;;;;;;;;;;;;5016204;28;1161;-90
2021/07/13 07:52:33;;;;;;;;;;;;;;;;;;5013058;28;1439;-91
2021/07/13 07:54:58;;;;;;;;;;;;;;;;;;5015633;28;1694;-91
2021/07/13 07:57:24;;;;;;;;;;;;;;;;;;5033776;28;1426;-91
2021/07/13 07:59:49;;;;;;;;;;;;;;;;;;5033913;28;1180;-91
2021/07/13 08:02:15;;;;;;;;;;;;;;;;;;5013709;28;1483;-91
2021/07/13 08:04:40;;;;;;;;;;;;;;;;;;5011920;28;1914;-91
2021/07/13 08:07:06;;;;;;;;;;;;;;;;;;5015767;28;1241;-91
2021/07/13 08:09:31;;;;;;;;;;;;;;;;;;5030207;28;1518;-91
2021/07/13 08:11:56;;;;;;;;;;;;;;;;;;4991644;28;1134;-91
2021/07/13 08:14:21;;;;;;;;;;;;;;;;;;5031884;28;1359;-91
2021/07/13 08:16:49;;;;;;;;;;;;;;;;;;5015874;28;1300;-91
2021/07/13 08:19:14;;;;;;;;;;;;;;;;;;5028222;28;1578;-90
2021/07/13 08:21:39;;;;;;;;;;;;;;;;;;5033203;28;1103;-91
2021/07/13 08:24:05;;;;;;;;;;;;;;;;;;5032409;28;1918;-91
2021/07/13 08:26:30;;;;;;;;;;;;;;;;;;5033469;28;1381;-91
2021/07/13 08:28:55;;;;;;;;;;;;;;;;;;5034002;28;1272;-90
2021/07/13 08:31:20;;;;;;;;;;;;;;;;;;5034101;28;1240;-91
2021/07/13 08:33:46;;;;;;;;;;;;;;;;;;5015855;28;1626;-90
2021/07/13 08:36:11;;;;;;;;;;;;;;;;;;5032341;28;1549;-90
2021/07/13 08:38:36;;;;;;;;;;;;;;;;;;5016146;28;1276;-91
2021/07/13 08:41:01;;;;;;;;;;;;;;;;;;5031365;28;1581;-90
2021/07/13 08:43:27;;;;;;;;;;;;;;;;;;5015586;28;1153;-90
2021/07/13 08:45:53;;;;;;;;;;;;;;;;;;5016244;28;1918;-91
2021/07/13 08:48:18;;;;;;;;;;;;;;;;;;5016503;28;1662;-91
2021/07/13 08:50:43;;;;;;;;;;;;;;;;;;5013809;28;1449;-90
2021/07/13 08:53:08;;;;;;;;;;;;;;;;;;5015481;28;1114;-91
2021/07/13 08:55:34;;;;;;;;;;;;;;;;;;5026504;28;1525;-91
2021/07/13 08:57:59;;;;;;;;;;;;;;;;;;5031848;28;1268;-91
2021/07/13 09:00:25;;;;;;;;;;;;;;;;;;5014214;28;1607;-91
2021/07/13 09:03:18;;;;;;;;;;;;;;;;;;5031181;28;1442;-91
2021/07/13 09:05:44;;;;;;;;;;;;;;;;;;5029577;28;1966;-90
2021/07/13 09:08:12;;;;;;;;;;;;;;;;;;5032915;28;1494;-91
2021/07/13 09:10:37;;;;;;;;;;;;;;;;;;5031180;28;1672;-90
2021/07/13 09:13:02;;;;;;;;;;;;;;;;;;5033514;28;1196;-90
2021/07/13 09:15:27;;;;;;;;;;;;;;;;;;5015378;28;1249;-90
2021/07/13 09:17:53;;;;;;;;;;;;;;;;;;5033750;28;1418;-90
2021/07/13 09:20:22;;;;;;;;;;;;;;;;;;5015880;28;1581;-90
2021/07/13 09:22:54;;;;;;;;;;;;;;;;;;5029118;28;1449;-90
2021/07/13 09:25:35;;;;;;;;;;;;;;;;;;5028873;28;1969;-90
2021/07/13 09:28:09;;;;;;;;;;;;;;;;;;5031499;28;1361;-90
2021/07/13 09:30:34;;;;;;;;;;;;;;;;;;5031014;28;983;-90
2021/07/13 09:33:18;;;;;;;;;;;;;;;;;;5031700;28;1530;-90
2021/07/13 09:36:04;;;;;;;;;;;;;;;;;;5031715;28;1189;-90
2021/07/13 09:38:29;;;;;;;;;;;;;;;;;;5026957;28;1637;-90
2021/07/13 09:41:02;;;;;;;;;;;;;;;;;;5030348;28;1541;-89
2021/07/13 09:43:37;;;;;;;;;;;;;;;;;;5015219;28;1158;-90
2021/07/13 09:46:05;;;;;;;;;;;;;;;;;;5031804;28;1894;-90
2021/07/13 09:48:30;;;;;;;;;;;;;;;;;;5015029;28;1646;-90
2021/07/13 09:50:57;;;;;;;;;;;;;;;;;;5033169;28;1170;-90
2021/07/13 09:53:22;;;;;;;;;;;;;;;;;;5031546;28;1322;-91
2021/07/13 09:55:48;;;;;;;;;;;;;;;;;;5028090;28;1593;-90
2021/07/13 09:58:17;;;;;;;;;;;;;;;;;;5028418;28;1537;-90
2021/07/13 10:00:43;;;;;;;;;;;;;;;;;;5015053;28;1094;-90
2021/07/13 10:03:13;;;;;;;;;;;;;;;;;;5010616;28;1643;-90
2021/07/13 10:05:38;;;;;;;;;;;;;;;;;;5033204;28;1898;-90
2021/07/13 10:08:03;;;;;;;;;;;;;;;;;;5013193;28;1538;-90
2021/07/13 10:10:29;;;;;;;;;;;;;;;;;;5025692;28;1542;-89
2021/07/13 10:12:54;;;;;;;;;;;;;;;;;;5011094;28;1676;-90
2021/07/13 10:15:19;;;;;;;;;;;;;;;;;;5029798;28;1378;-90
2021/07/13 10:17:44;;;;;;;;;;;;;;;;;;5033259;28;1370;-90
2021/07/13 10:20:10;;;;;;;;;;;;;;;;;;5032619;28;1225;-90
2021/07/13 10:22:39;;;;;;;;;;;;;;;;;;5012593;28;1533;-90
2021/07/13 10:25:04;;;;;;;;;;;;;;;;;;5013088;28;1962;-90
2021/07/13 10:27:33;;;;;;;;;;;;;;;;;;4997006;28;1366;-90
2021/07/13 10:30:02;;;;;;;;;;;;;;;;;;5013874;28;1411;-90
2021/07/13 10:32:27;;;;;;;;;;;;;;;;;;5013090;28;1516;-90
2021/07/13 10:34:56;;;;;;;;;;;;;;;;;;5027961;28;1534;-90
2021/07/13 10:37:45;;;;;;;;;;;;;;;;;;5031552;28;1340;-90
2021/07/13 10:40:11;;;;;;;;;;;;;;;;;;5014671;28;1662;-90
2021/07/13 10:42:39;;;;;;;;;;;;;;;;;;5032019;28;1144;-90
2021/07/13 10:45:39;;;;;;;;;;;;;;;;;;5032201;28;1957;-90
2021/07/13 10:48:04;;;;;;;;;;;;;;;;;;4986025;28;1591;-90
2021/07/13 10:50:30;;;;;;;;;;;;;;;;;;5032717;28;1106;-90
2021/07/13 10:53:05;;;;;;;;;;;;;;;;;;5009715;28;1438;-90
2021/07/13 10:55:30;;;;;;;;;;;;;;;;;;5013574;28;1595;-90
2021/07/13 10:58:14;;;;;;;;;;;;;;;;;;5031816;28;1224;-90
2021/07/13 11:00:59;;;;;;;;;;;;;;;;;;5028012;28;1314;-90
2021/07/13 11:06:15;;;;;;;;;;;;;;;;;;5031464;28;1953;-90
2021/07/13 11:08:41;;;;;;;;;;;;;;;;;;5012306;28;1233;-90
2021/07/13 11:11:06;;;;;;;;;;;;;;;;;;5029450;28;1748;-90
2021/07/13 11:13:31;;;;;;;;;;;;;;;;;;4996873;28;1456;-90
2021/07/13 11:15:56;;;;;;;;;;;;;;;;;;5031992;28;1083;-90
2021/07/13 11:18:26;;;;;;;;;;;;;;;;;;5009054;28;1626;-90
2021/07/13 11:20:51;;;;;;;;;;;;;;;;;;5035021;28;1039;-90
2021/07/13 11:23:25;;;;;;;;;;;;;;;;;;5034185;28;1258;-90
2021/07/13 11:26:01;;;;;;;;;;;;;;;;;;5017321;28;1914;-90
2021/07/13 11:28:26;;;;;;;;;;;;;;;;;;5016516;28;1575;-90
2021/07/13 11:30:52;;;;;;;;;;;;;;;;;;5036470;28;1161;-90
2021/07/13 11:33:24;;;;;;;;;;;;;;;;;;5033895;28;1637;-90
2021/07/13 11:35:52;;;;;;;;;;;;;;;;;;5018365;28;1121;-89
2021/07/13 11:38:27;;;;;;;;;;;;;;;;;;5016166;28;1619;-90
2021/07/13 11:41:09;;;;;;;;;;;;;;;;;;5012258;28;1602;-90
2021/07/13 11:43:34;;;;;;;;;;;;;;;;;;5032697;28;1197;-90
2021/07/13 11:46:16;;;;;;;;;;;;;;;;;;5034505;28;1961;-90
2021/07/13 11:48:42;;;;;;;;;;;;;;;;;;5016215;28;1379;-90
2021/07/13 11:51:08;;;;;;;;;;;;;;;;;;5015138;28;1579;-90
2021/07/13 11:53:34;;;;;;;;;;;;;;;;;;5034553;28;1660;-89
2021/07/13 11:55:59;;;;;;;;;;;;;;;;;;5028290;28;1518;-90
2021/07/13 11:58:25;;;;;;;;;;;;;;;;;;5035684;28;1227;-90
2021/07/13 12:00:50;;;;;;;;;;;;;;;;;;5015229;28;1474;-90
2021/07/13 12:03:25;;;;;;;;;;;;;;;;;;5032486;28;1662;-90
2021/07/13 12:06:07;;;;;;;;;;;;;;;;;;5034207;28;1906;-90
2021/07/13 12:08:32;;;;;;;;;;;;;;;;;;5034602;28;1419;-90
2021/07/13 12:10:58;;;;;;;;;;;;;;;;;;5015411;28;1591;-90
2021/07/13 12:13:23;;;;;;;;;;;;;;;;;;5034086;28;1426;-90
2021/07/13 12:15:48;;;;;;;;;;;;;;;;;;5035434;28;1077;-90
2021/07/13 12:18:13;;;;;;;;;;;;;;;;;;5016170;28;1516;-90
2021/07/13 12:20:38;;;;;;;;;;;;;;;;;;5021018;28;1192;-90
2021/07/13 12:23:03;;;;;;;;;;;;;;;;;;5040373;28;1479;-90
2021/07/13 12:25:29;;;;;;;;;;;;;;;;;;5049238;28;1895;-90
2021/07/13 12:28:07;;;;;;;;;;;;;;;;;;5034827;28;1275;-90
2021/07/13 12:30:33;;;;;;;;;;;;;;;;;;5029453;28;1505;-90
2021/07/13 12:33:02;;;;;;;;;;;;;;;;;;5034557;28;1229;-90
2021/07/13 12:35:27;;;;;;;;;;;;;;;;;;5029512;28;1756;-90
2021/07/13 12:37:53;;;;;;;;;;;;;;;;;;5035397;28;1399;-90
2021/07/13 12:40:18;;;;;;;;;;;;;;;;;;5030779;28;1716;-90
2021/07/13 12:42:46;;;;;;;;;;;;;;;;;;5033994;28;1148;-90
2021/07/13 12:45:11;;;;;;;;;;;;;;;;;;5035509;28;1918;-90
2021/07/13 12:47:36;;;;;;;;;;;;;;;;;;5025941;28;1527;-90
2021/07/13 12:50:01;;;;;;;;;;;;;;;;;;5034730;28;1181;-90
2021/07/13 12:52:31;;;;;;;;;;;;;;;;;;5033855;28;1168;-90
2021/07/13 12:54:57;;;;;;;;;;;;;;;;;;5031470;28;1581;-90
2021/07/13 12:57:26;;;;;;;;;;;;;;;;;;5016696;28;1355;-90
2021/07/13 12:59:59;;;;;;;;;;;;;;;;;;5034603;28;1177;-90
2021/07/13 13:02:24;;;;;;;;;;;;;;;;;;5028364;28;1466;-90
2021/07/13 13:04:49;;;;;;;;;;;;;;;;;;5031395;28;1910;-90
2021/07/13 13:07:21;;;;;;;;;;;;;;;;;;4998828;28;1561;-90
2021/07/13 13:09:46;;;;;;;;;;;;;;;;;;5026968;28;1613;-90
2021/07/13 13:12:11;;;;;;;;;;;;;;;;;;5032251;28;1477;-90
2021/07/13 13:14:37;;;;;;;;;;;;;;;;;;5032961;28;1090;-90
2021/07/13 13:17:02;;;;;;;;;;;;;;;;;;5032740;28;1338;-90
2021/07/13 13:19:29;;;;;;;;;;;;;;;;;;5031823;28;1581;-90
2021/07/13 13:21:55;;;;;;;;;;;;;;;;;;5032721;28;1362;-90
2021/07/13 13:24:20;;;;;;;;;;;;;;;;;;5030031;28;1902;-90
2021/07/13 13:26:46;;;;;;;;;;;;;;;;;;5032725;28;1481;-90
2021/07/13 13:29:12;;;;;;;;;;;;;;;;;;5031461;28;1036;-90
2021/07/13 13:31:37;;;;;;;;;;;;;;;;;;5030524;28;1315;-90
2021/07/13 13:34:04;;;;;;;;;;;;;;;;;;5025019;28;1645;-90
2021/07/13 13:36:29;;;;;;;;;;;;;;;;;;5032823;28;1402;-90
2021/07/13 13:41:23;;;;;;;;;;;;;;;;;;5030319;28;1035;-90
2021/07/13 13:43:48;;;;;;;;;;;;;;;;;;5013815;28;1182;-90
2021/07/13 13:46:13;;;;;;;;;;;;;;;;;;5033934;28;1910;-90
2021/07/13 13:48:38;;;;;;;;;;;;;;;;;;5026718;28;1621;-90
2021/07/13 13:51:05;;;;;;;;;;;;;;;;;;5034128;28;1240;-90
2021/07/13 13:53:30;;;;;;;;;;;;;;;;;;5031994;28;1314;-90
2021/07/13 13:55:55;;;;;;;;;;;;;;;;;;5014312;28;1605;-90
2021/07/13 13:58:20;;;;;;;;;;;;;;;;;;5014332;28;1610;-90
2021/07/13 14:00:45;;;;;;;;;;;;;;;;;;5033458;28;1172;-90
2021/07/13 14:03:10;;;;;;;;;;;;;;;;;;5031679;28;1435;-91
2021/07/13 14:05:36;;;;;;;;;;;;;;;;;;5026543;28;1902;-90
2021/07/13 14:08:01;;;;;;;;;;;;;;;;;;5030442;28;1323;-90
2021/07/13 14:10:26;;;;;;;;;;;;;;;;;;5011533;28;1551;-90
2021/07/13 14:12:51;;;;;;;;;;;;;;;;;;5030606;28;1153;-90
2021/07/13 14:15:17;;;;;;;;;;;;;;;;;;5032832;28;1181;-90
2021/07/13 14:17:42;;;;;;;;;;;;;;;;;;5030943;28;1517;-90
2021/07/13 14:20:08;;;;;;;;;;;;;;;;;;5030075;28;1554;-90
2021/07/13 14:22:34;;;;;;;;;;;;;;;;;;5030163;28;1525;-90
2021/07/13 14:24:59;;;;;;;;;;;;;;;;;;5030780;28;1898;-90
2021/07/13 14:27:24;;;;;;;;;;;;;;;;;;5030754;28;1359;-91
2021/07/13 14:29:49;;;;;;;;;;;;;;;;;;5033279;28;1070;-90
2021/07/13 14:32:14;;;;;;;;;;;;;;;;;;5012114;28;1547;-90
2021/07/13 14:34:40;;;;;;;;;;;;;;;;;;5032944;28;1228;-90
2021/07/13 14:37:05;;;;;;;;;;;;;;;;;;5026527;28;1541;-90
2021/07/13 14:39:30;;;;;;;;;;;;;;;;;;5029206;28;1542;-90
2021/07/13 14:41:55;;;;;;;;;;;;;;;;;;5030446;28;1457;-89
2021/07/13 14:44:20;;;;;;;;;;;;;;;;;;5026101;28;1934;-89
2021/07/13 14:46:45;;;;;;;;;;;;;;;;;;5011713;28;1496;-90
2021/07/13 14:49:11;;;;;;;;;;;;;;;;;;5030595;28;1279;-89
2021/07/13 14:51:36;;;;;;;;;;;;;;;;;;5031527;28;1224;-89
2021/07/13 14:54:01;;;;;;;;;;;;;;;;;;5023038;28;1563;-89
2021/07/13 14:56:26;;;;;;;;;;;;;;;;;;5030350;28;1294;-89
2021/07/13 14:58:52;;;;;;;;;;;;;;;;;;5013601;28;1420;-88
2021/07/13 15:01:17;;;;;;;;;;;;;;;;;;5032144;28;1177;-88
2021/07/13 15:03:42;;;;;;;;;;;;;;;;;;5025457;28;1597;-88
2021/07/13 15:06:07;;;;;;;;;;;;;;;;;;5032673;28;1906;-89
2021/07/13 15:08:32;;;;;;;;;;;;;;;;;;5026680;28;1405;-89
2021/07/13 15:10:58;;;;;;;;;;;;;;;;;;5029673;28;1545;-92
2021/07/13 15:13:24;;;;;;;;;;;;;;;;;;5031190;28;1133;-90
2021/07/13 15:15:49;;;;;;;;;;;;;;;;;;5031602;28;1239;-92
2021/07/13 15:18:14;;;;;;;;;;;;;;;;;;5031496;28;1664;-92
2021/07/13 15:20:40;;;;;;;;;;;;;;;;;;5010536;28;1677;-90
2021/07/13 15:23:05;;;;;;;;;;;;;;;;;;5030055;28;1109;-91
2021/07/13 15:25:31;;;;;;;;;;;;;;;;;;5025966;28;1875;-91
2021/07/13 15:27:59;;;;;;;;;;;;;;;;;;5030293;28;1302;-91
2021/07/13 15:30:24;;;;;;;;;;;;;;;;;;5029789;28;1379;-91
2021/07/13 15:32:49;;;;;;;;;;;;;;;;;;5027947;28;1617;-90
2021/07/13 15:35:15;;;;;;;;;;;;;;;;;;5029821;28;1350;-92
2021/07/13 15:37:40;;;;;;;;;;;;;;;;;;5008232;28;1636;-94
2021/07/13 15:40:05;;;;;;;;;;;;;;;;;;5013752;28;1695;-93
2021/07/13 15:42:30;;;;;;;;;;;;;;;;;;5024499;28;1244;-92
2021/07/13 15:44:56;;;;;;;;;;;;;;;;;;5016142;28;1965;-92
2021/07/13 15:47:21;;;;;;;;;;;;;;;;;;5001086;28;1522;-92
2021/07/13 15:49:46;;;;;;;;;;;;;;;;;;5035062;28;1454;-92
2021/07/13 15:52:12;;;;;;;;;;;;;;;;;;5034191;28;1164;-91
2021/07/13 15:54:37;;;;;;;;;;;;;;;;;;5030089;28;1735;-90
2021/07/13 15:57:02;;;;;;;;;;;;;;;;;;5033021;28;1384;-92
2021/07/13 15:59:29;;;;;;;;;;;;;;;;;;5033796;28;1255;-91
2021/07/13 16:01:55;;;;;;;;;;;;;;;;;;5024074;28;1532;-92
2021/07/13 16:04:20;;;;;;;;;;;;;;;;;;5024565;28;1906;-92
2021/07/13 16:06:45;;;;;;;;;;;;;;;;;;5033394;28;1641;-92
2021/07/13 16:09:10;;;;;;;;;;;;;;;;;;5032734;28;1795;-92
2021/07/13 16:11:35;;;;;;;;;;;;;;;;;;5035996;28;1437;-91
2021/07/13 16:14:00;;;;;;;;;;;;;;;;;;5030666;28;1636;-92
2021/07/13 16:16:26;;;;;;;;;;;;;;;;;;5034386;28;1747;-92
2021/07/13 16:18:51;;;;;;;;;;;;;;;;;;5027960;28;1929;-92
2021/07/13 16:21:16;;;;;;;;;;;;;;;;;;5019346;28;1650;-92
2021/07/13 16:23:42;;;;;;;;;;;;;;;;;;5037662;28;1176;-90
2021/07/13 16:26:07;;;;;;;;;;;;;;;;;;5011178;28;1914;-89
2021/07/13 16:28:32;;;;;;;;;;;;;;;;;;5015876;28;1735;-89
2021/07/13 16:30:57;;;;;;;;;;;;;;;;;;5035092;28;1208;-90
2021/07/13 16:33:23;;;;;;;;;;;;;;;;;;5015630;28;1565;-90
2021/07/13 16:35:48;;;;;;;;;;;;;;;;;;5016430;28;1161;-90
2021/07/13 16:38:13;;;;;;;;;;;;;;;;;;5032934;28;1498;-91
2021/07/13 16:40:38;;;;;;;;;;;;;;;;;;5017122;28;1591;-91
2021/07/13 16:43:03;;;;;;;;;;;;;;;;;;5014049;28;1722;-91
2021/07/13 16:45:32;;;;;;;;;;;;;;;;;;5016583;28;1906;-91
2021/07/13 16:47:57;;;;;;;;;;;;;;;;;;4996554;28;2110;-92
2021/07/13 16:50:22;;;;;;;;;;;;;;;;;;5016891;28;1122;-91
2021/07/13 16:52:50;;;;;;;;;;;;;;;;;;5014526;28;1438;-91
2021/07/13 16:55:19;;;;;;;;;;;;;;;;;;5030312;28;1517;-91
2021/07/13 16:57:44;;;;;;;;;;;;;;;;;;5029552;28;1688;-92
2021/07/13 17:00:10;;;;;;;;;;;;;;;;;;5030028;28;1751;-91
2021/07/13 17:02:36;;;;;;;;;;;;;;;;;;4996303;28;1620;-91